Tatum, South Carolina
Current Conditions -  °F | °C
As of 3:15 PM on Sunday 21 Dec 2014 (Local Time) from KBBP Reporting Station
Overcast Overcast  
Wind Chill: 55°   Ceiling: 4200
Heat Index: 55°   Visibility: 10mi
Dew Point: 36°   Wind: 8mph
Humidity: 47%   Direction: 70°ENE
Pressure: 30.18"   Gusts: NA
Location:  34.64°N, 79.59°W
Report Text: KBBP 212015Z AUTO 07007KT 10SM OVC042 13/02 A3018 RMK AO2
Loading
Personal Weather Stations






























Interactive Weather Map New forecast layout! Learn more

10-Day Weather Forecast

Advertisements
Track Severe Weather on mobile